Owatonna, MN

1:49 AM CDT on May 27, 2017 (GMT -0500)
Owatonna Degner Regional

Weather History for KOWA - October, 2013

Change the Weather History Date:

Thursday, October 10, 2013

  Actual Average Record
Temperature  
Mean Temperature 64 °F -  
Max Temperature 75 °F 61 °F 80 °F (1962)
Min Temperature 53 °F 37 °F 25 °F (1964)
Degree Days  
Heating Degree Days 1    
Growing Degree Days 14 (Base 50)    
Moisture  
Dew Point 47 °F    
Average Humidity 55    
Maximum Humidity 72    
Minimum Humidity 34    
Precipitation  
Precipitation 0.00 in - - ()
Sea Level Pressure  
Sea Level Pressure 29.99 in    
Wind  
Wind Speed 11 mph (SSE)    
Max Wind Speed 17 mph    
Max Gust Speed 23 mph    
Visibility 10 miles    
Events      
Averages and records for this station are not official NWS values.
T = Trace of Precipitation, MM = Missing Value Source: NWS Daily Summary

Daily Weather History Graph

Daily Weather History Graph

Search for Another Location

Airport or City:

Trip Planner

Search our weather history database for the weather conditions in past years. The results will help you decide how hot, cold, wet, or windy it might be!

Date:

Astronomy

Oct. 10, 2013 Rise Set
Actual Time 7:21 AM CDT 6:37 PM CDT
Civil Twilight 6:52 AM CDT 7:06 PM CDT
Nautical Twilight 6:19 AM CDT 7:39 PM CDT
Astronomical Twilight 5:45 AM CDT 8:13 PM CDT
Moon 1:22 PM CDT (10/10) 11:08 PM CDT (10/10)
Length of Visible Light 12h 13m
Length of Day
11h 15m
Waxing Crescent, 36% of the Moon is Illuminated
Oct 10
Waxing Crescent
Oct 11
First Quarter
Oct 18
Full
Oct 26
Last Quarter
Nov 3
New

Hourly Weather History & Observations

Time (CDT) Temp. Dew Point Humidity Pressure Visibility Wind Dir Wind Speed Gust Speed Precip Events Conditions
12:14 AM 59.0 °F 44.6 °F 59% 30.05 in 10.0 mi SSE 10.4 mph - N/A   Clear
12:34 AM 59.0 °F 44.6 °F 59% 30.05 in 10.0 mi SSE 10.4 mph - N/A   Clear
12:54 AM 57.2 °F 44.6 °F 63% 30.05 in 10.0 mi SSE 11.5 mph - N/A   Clear
1:14 AM 57.2 °F 44.6 °F 63% 30.05 in 10.0 mi SSE 11.5 mph - N/A   Clear
1:34 AM 57.2 °F 44.6 °F 63% 30.06 in 10.0 mi SSE 11.5 mph 16.1 mph N/A   Clear
1:54 AM 57.2 °F 44.6 °F 63% 30.06 in 10.0 mi SSE 10.4 mph - N/A   Clear
2:14 AM 55.4 °F 44.6 °F 67% 30.06 in 10.0 mi SSE 9.2 mph - N/A   Clear
2:34 AM 55.4 °F 44.6 °F 67% 30.06 in 10.0 mi South 9.2 mph - N/A   Clear
2:54 AM 55.4 °F 44.6 °F 67% 30.06 in 10.0 mi SSE 8.1 mph - N/A   Clear
3:14 AM 55.4 °F 44.6 °F 67% 30.06 in 10.0 mi SSE 9.2 mph - N/A   Clear
3:34 AM 53.6 °F 44.6 °F 72% 30.05 in 10.0 mi SSE 9.2 mph - N/A   Clear
3:54 AM 53.6 °F 42.8 °F 67% 30.05 in 10.0 mi SSE 9.2 mph - N/A   Clear
4:14 AM 53.6 °F 42.8 °F 67% 30.05 in 10.0 mi SSE 10.4 mph - N/A   Clear
4:34 AM 53.6 °F 42.8 °F 67% 30.05 in 10.0 mi SSE 10.4 mph - N/A   Clear
4:54 AM 53.6 °F 42.8 °F 67% 30.05 in 10.0 mi SSE 11.5 mph - N/A   Clear
5:14 AM 55.4 °F 42.8 °F 63% 30.05 in 10.0 mi SSE 12.7 mph - N/A   Clear
5:34 AM 53.6 °F 42.8 °F 67% 30.05 in 10.0 mi SSE 11.5 mph - N/A   Clear
5:54 AM 53.6 °F 42.8 °F 67% 30.04 in 10.0 mi SSE 11.5 mph - N/A   Clear
6:14 AM 53.6 °F 42.8 °F 67% 30.04 in 10.0 mi SSE 11.5 mph - N/A   Clear
6:34 AM 53.6 °F 44.6 °F 72% 30.04 in 10.0 mi SSE 11.5 mph - N/A   Clear
6:54 AM 53.6 °F 44.6 °F 72% 30.04 in 10.0 mi SSE 9.2 mph - N/A   Clear
7:14 AM 53.6 °F 44.6 °F 72% 30.04 in 10.0 mi SSE 9.2 mph - N/A   Clear
7:34 AM 53.6 °F 44.6 °F 72% 30.04 in 10.0 mi SSE 10.4 mph - N/A   Clear
7:54 AM 53.6 °F 44.6 °F 72% 30.04 in 10.0 mi SSE 10.4 mph - N/A   Clear
8:14 AM 55.4 °F 44.6 °F 67% 30.04 in 10.0 mi SSE 11.5 mph - N/A   Clear
8:34 AM 55.4 °F 46.4 °F 72% 30.04 in 10.0 mi SSE 11.5 mph - N/A   Clear
8:54 AM 57.2 °F 46.4 °F 67% 30.03 in 10.0 mi SSE 10.4 mph - N/A   Clear
9:14 AM 59.0 °F 46.4 °F 63% 30.03 in 10.0 mi SSE 12.7 mph - N/A   Clear
9:34 AM 60.8 °F 46.4 °F 59% 30.03 in 10.0 mi SSE 11.5 mph - N/A   Clear
9:54 AM 60.8 °F 46.4 °F 59% 30.03 in 10.0 mi SSE 10.4 mph 16.1 mph N/A   Clear
10:14 AM 62.6 °F 48.2 °F 59% 30.03 in 10.0 mi SSE 10.4 mph - N/A   Clear
10:34 AM 64.4 °F 48.2 °F 56% 30.03 in 10.0 mi SSE 15.0 mph - N/A   Clear
10:54 AM 66.2 °F 48.2 °F 52% 30.02 in 10.0 mi South 11.5 mph - N/A   Clear
11:14 AM 66.2 °F 48.2 °F 52% 30.01 in 10.0 mi SSE 10.4 mph - N/A   Clear
11:34 AM 69.8 °F 48.2 °F 46% 30.01 in 10.0 mi SSE 12.7 mph 17.3 mph N/A   Clear
11:54 AM 69.8 °F 48.2 °F 46% 30.01 in 10.0 mi SSE 10.4 mph 18.4 mph N/A   Clear
12:14 PM 71.6 °F 50.0 °F 46% 30.00 in 10.0 mi SSE 13.8 mph 20.7 mph N/A   Clear
12:34 PM 73.4 °F 50.0 °F 44% 30.00 in 10.0 mi SSE 10.4 mph 18.4 mph N/A   Clear
12:54 PM 73.4 °F 50.0 °F 44% 29.99 in 10.0 mi SSE 15.0 mph 20.7 mph N/A   Clear
1:14 PM 73.4 °F 48.2 °F 41% 29.98 in 10.0 mi SSE 12.7 mph 23.0 mph N/A   Clear
1:34 PM 75.2 °F 48.2 °F 38% 29.98 in 10.0 mi SSE 13.8 mph 20.7 mph N/A   Clear
1:54 PM 75.2 °F 48.2 °F 38% 29.97 in 10.0 mi SSE 12.7 mph 21.9 mph N/A   Clear
2:14 PM 75.2 °F 46.4 °F 36% 29.97 in 10.0 mi SSE 17.3 mph 21.9 mph N/A   Clear
2:34 PM 75.2 °F 46.4 °F 36% 29.96 in 10.0 mi SSE 15.0 mph 19.6 mph N/A   Clear
2:54 PM 75.2 °F 46.4 °F 36% 29.95 in 10.0 mi SSE 13.8 mph 20.7 mph N/A   Clear
3:14 PM 75.2 °F 46.4 °F 36% 29.95 in 10.0 mi SSE 13.8 mph 18.4 mph N/A   Clear
3:34 PM 75.2 °F 46.4 °F 36% 29.95 in 10.0 mi SSE 17.3 mph 21.9 mph N/A   Clear
3:54 PM 75.2 °F 46.4 °F 36% 29.94 in 10.0 mi South 15.0 mph 23.0 mph N/A   Clear
4:14 PM 75.2 °F 44.6 °F 34% 29.94 in 10.0 mi SSE 15.0 mph 21.9 mph N/A   Clear
4:34 PM 75.2 °F 46.4 °F 36% 29.93 in 10.0 mi SSE 11.5 mph 23.0 mph N/A   Clear
4:54 PM 75.2 °F 46.4 °F 36% 29.93 in 10.0 mi SSE 15.0 mph 21.9 mph N/A   Clear
5:14 PM 73.4 °F 46.4 °F 38% 29.92 in 10.0 mi SSE 13.8 mph 20.7 mph N/A   Clear
5:34 PM 73.4 °F 46.4 °F 38% 29.92 in 10.0 mi SE 12.7 mph 18.4 mph N/A   Clear
5:54 PM 73.4 °F 46.4 °F 38% 29.92 in 10.0 mi SE 12.7 mph 17.3 mph N/A   Clear
6:14 PM 71.6 °F 48.2 °F 43% 29.92 in 10.0 mi SE 8.1 mph - N/A   Clear
6:34 PM 69.8 °F 48.2 °F 46% 29.92 in 10.0 mi SE 6.9 mph - N/A   Clear
6:54 PM 68.0 °F 48.2 °F 49% 29.93 in 10.0 mi SE 5.8 mph - N/A   Clear
7:14 PM 66.2 °F 48.2 °F 52% 29.93 in 10.0 mi SE 8.1 mph - N/A   Clear
7:34 PM 68.0 °F 48.2 °F 49% 29.92 in 10.0 mi SE 10.4 mph 16.1 mph N/A   Clear
7:54 PM 66.2 °F 48.2 °F 52% 29.92 in 10.0 mi SE 10.4 mph - N/A   Clear
8:14 PM 66.2 °F 48.2 °F 52% 29.92 in 10.0 mi SE 8.1 mph - N/A   Clear
8:34 PM 66.2 °F 48.2 °F 52% 29.92 in 10.0 mi SE 10.4 mph - N/A   Clear
8:54 PM 64.4 °F 48.2 °F 56% 29.91 in 10.0 mi SE 11.5 mph 17.3 mph N/A   Clear
9:14 PM 64.4 °F 50.0 °F 59% 29.91 in 10.0 mi SE 9.2 mph - N/A   Clear
9:34 PM 64.4 °F 50.0 °F 59% 29.91 in 10.0 mi SE 10.4 mph - N/A   Clear
9:54 PM 64.4 °F 50.0 °F 59% 29.91 in 10.0 mi SSE 10.4 mph - N/A   Clear
10:14 PM 64.4 °F 50.0 °F 59% 29.91 in 10.0 mi SE 11.5 mph 17.3 mph N/A   Clear
10:34 PM 64.4 °F 50.0 °F 59% 29.91 in 10.0 mi SE 9.2 mph - N/A   Clear
10:54 PM 62.6 °F 50.0 °F 63% 29.91 in 10.0 mi SE 9.2 mph - N/A   Clear
11:14 PM 62.6 °F 50.0 °F 63% 29.91 in 10.0 mi SE 8.1 mph - N/A   Clear
11:34 PM 62.6 °F 50.0 °F 63% 29.90 in 10.0 mi SE 8.1 mph - N/A   Clear
11:54 PM 62.6 °F 50.0 °F 63% 29.90 in 10.0 mi SE 10.4 mph 16.1 mph N/A   Clear